Sector Santa Ana, Puerto Rico
Current Conditions -  °F | °C
As of 3:56 PM on Thursday 20 Nov 2014 (Local Time) from TJSJ Reporting Station
Scattered Clouds Scattered Clouds  
Wind Chill: 85°   Ceiling: Unl
Heat Index: 92°   Visibility: 10mi
Dew Point: 74°   Wind: 12mph
Humidity: 69%   Direction: 70°ENE
Pressure: 29.94"   Gusts: NA
Location:  17.9903°N, 66.2815°W
Report Text: TJSJ 201956Z 07010KT 10SM FEW032 SCT075 29/23 A2994 RMK AO2 SLP136 T02940233
Loading
Personal Weather Stations






























Interactive Weather Map New forecast layout! Learn more

10-Day Weather Forecast

Advertisements
Track Severe Weather on mobile